Time;durP1;ratioP1;P1;durP2;ratioP2;P2;SDS_P1;SDS_P2;PMS_P1;PMS_P2;Temp;Humidity;BMP_temperature;BMP_pressure;BME280_temperature;BME280_humidity;BME280_pressure;Samples;Min_cycle;Max_cycle;Signal;HPM_P1;HPM_P2
2022/09/06 00:02:18;;;;;;;5.20;2.00;;;;;;;10.77;54.95;100395.55;429783;1273;142874;-58
2022/09/06 00:12:24;;;;;;;5.10;2.40;;;;;;;10.69;55.19;100388.44;431220;1271;141485;-58
2022/09/06 00:22:30;;;;;;;2.90;1.70;;;;;;;10.72;55.47;100387.73;430424;1271;141682;-60
2022/09/06 00:32:36;;;;;;;7.00;2.20;;;;;;;10.71;55.31;100380.08;430492;1273;141121;-57
2022/09/06 00:42:42;;;;;;;3.70;2.10;;;;;;;10.69;55.68;100378.79;430017;1273;142724;-64
2022/09/06 00:52:52;;;;;;;6.40;2.00;;;;;;;10.62;55.73;100376.19;431690;1273;146621;-63
2022/09/06 01:02:57;;;;;;;3.70;2.80;;;;;;;10.58;56.10;100380.43;430219;1271;142304;-63
2022/09/06 01:13:10;;;;;;;4.60;2.60;;;;;;;10.44;56.27;100381.08;429986;1273;141758;-63
2022/09/06 01:23:39;;;;;;;4.30;2.30;;;;;;;10.20;56.66;100393.46;430570;1271;146778;-63
2022/09/06 01:33:51;;;;;;;6.30;3.80;;;;;;;10.01;57.31;100391.95;430375;1271;142736;-63
2022/09/06 01:43:58;;;;;;;7.10;3.30;;;;;;;9.84;57.98;100389.28;429517;1271;142618;-62
2022/09/06 01:54:22;;;;;;;5.20;2.60;;;;;;;9.69;58.26;100385.96;430817;1273;142559;-65
2022/09/06 02:04:32;;;;;;;5.30;3.40;;;;;;;9.52;58.81;100380.48;430665;1273;142386;-63
2022/09/06 02:14:45;;;;;;;3.80;2.90;;;;;;;9.34;59.23;100379.03;430054;1271;142054;-62
2022/09/06 02:24:56;;;;;;;3.80;2.90;;;;;;;9.17;59.70;100375.77;430815;1271;152925;-63
2022/09/06 02:35:13;;;;;;;4.80;2.70;;;;;;;9.02;60.21;100379.41;429986;1271;145182;-61
2022/09/06 02:45:19;;;;;;;4.60;3.10;;;;;;;8.92;60.61;100372.68;430747;1271;142647;-63
2022/09/06 02:55:25;;;;;;;4.50;3.10;;;;;;;8.85;61.12;100371.09;431930;1271;142589;-65
2022/09/06 03:05:31;;;;;;;4.80;4.30;;;;;;;8.79;61.38;100369.59;430975;1271;145461;-64
2022/09/06 03:15:37;;;;;;;6.60;3.30;;;;;;;8.70;61.47;100363.18;431437;1270;142707;-65
2022/09/06 03:25:43;;;;;;;5.40;4.00;;;;;;;8.63;61.93;100357.73;430843;1273;142188;-64
2022/09/06 03:35:52;;;;;;;5.90;3.80;;;;;;;8.51;62.14;100355.23;430695;1270;142405;-62
2022/09/06 03:45:58;;;;;;;4.80;4.20;;;;;;;8.40;62.63;100350.63;429888;1270;1290714;-63
2022/09/06 03:56:05;;;;;;;5.30;4.40;;;;;;;8.33;63.00;100361.94;431688;1273;143777;-64
2022/09/06 04:06:11;;;;;;;5.50;3.60;;;;;;;8.27;63.10;100355.88;434004;1270;142383;-62
2022/09/06 04:16:17;;;;;;;5.10;4.10;;;;;;;8.27;63.45;100351.70;433593;1270;143387;-64
2022/09/06 04:26:24;;;;;;;8.40;4.20;;;;;;;8.34;63.44;100343.58;430848;1270;142372;-65
2022/09/06 04:36:29;;;;;;;5.00;4.00;;;;;;;8.45;63.61;100346.75;431147;1270;141444;-62
2022/09/06 04:46:36;;;;;;;6.60;3.50;;;;;;;8.60;63.44;100350.01;431851;1270;141998;-63
2022/09/06 04:56:42;;;;;;;4.60;3.50;;;;;;;8.78;63.40;100349.21;430891;1270;143025;-65
2022/09/06 05:06:48;;;;;;;6.90;3.60;;;;;;;9.03;63.21;100341.13;431461;1270;142172;-67
2022/09/06 05:16:54;;;;;;;4.30;3.50;;;;;;;9.52;62.89;100349.66;432723;1270;151434;-66
2022/09/06 05:27:02;;;;;;;4.90;4.00;;;;;;;14.87;58.74;100346.86;432042;1268;141652;-68
2022/09/06 05:37:08;;;;;;;6.30;3.10;;;;;;;20.99;50.35;100340.27;447699;1269;143185;-65
2022/09/06 05:47:14;;;;;;;7.20;3.30;;;;;;;27.03;41.43;100340.16;445646;1271;141236;-66
2022/09/06 05:57:20;;;;;;;8.70;3.10;;;;;;;30.28;35.00;100336.39;431760;1270;182484;-66
2022/09/06 06:07:25;;;;;;;;;;;;;;;32.88;30.56;100326.45;430913;1270;141475;-67
2022/09/06 06:17:30;;;;;;;4.80;3.10;;;;;;;34.90;27.02;100321.05;430771;1270;128064;-67
2022/09/06 06:27:36;;;;;;;5.30;3.10;;;;;;;36.04;24.63;100328.23;430698;1270;142053;-68
2022/09/06 06:37:43;;;;;;;7.80;3.50;;;;;;;37.07;22.78;100329.59;430470;1270;142229;-67
2022/09/06 06:47:52;;;;;;;9.20;3.20;;;;;;;38.71;21.55;100333.86;430324;1270;143035;-65
2022/09/06 06:57:59;;;;;;;6.80;3.00;;;;;;;40.63;20.11;100331.17;431154;1270;143115;-65
2022/09/06 07:08:06;;;;;;;4.90;3.90;;;;;;;42.04;18.66;100323.38;430061;1270;142415;-62
2022/09/06 07:18:15;;;;;;;7.20;3.30;;;;;;;42.24;17.57;100332.16;430879;1273;142066;-62
2022/09/06 07:28:22;;;;;;;4.50;2.60;;;;;;;43.73;16.70;100339.89;430596;1270;141130;-62
2022/09/06 07:38:29;;;;;;;3.50;2.80;;;;;;;44.50;15.20;100335.94;430693;1270;143465;-62
2022/09/06 07:48:37;;;;;;;3.30;2.60;;;;;;;44.42;15.29;100339.73;430637;1271;141500;-64
2022/09/06 07:58:43;;;;;;;2.70;2.50;;;;;;;44.20;14.71;100346.77;432712;1270;141687;-62
2022/09/06 08:08:50;;;;;;;2.50;2.10;;;;;;;43.73;14.48;100344.95;430214;1270;141779;-61
2022/09/06 08:19:07;;;;;;;3.60;2.30;;;;;;;42.90;14.68;100340.30;431470;1270;140821;-62
2022/09/06 08:29:14;;;;;;;2.20;1.90;;;;;;;43.69;14.55;100336.61;430478;1271;160249;-62
2022/09/06 08:39:19;;;;;;;3.10;1.50;;;;;;;43.40;14.27;100330.54;431320;1270;146254;-61
2022/09/06 08:49:29;;;;;;;3.70;1.10;;;;;;;35.09;16.97;100326.40;430683;1273;141811;-62
2022/09/06 08:59:39;;;;;;;1.70;1.40;;;;;;;28.77;21.07;100328.88;431112;1270;145751;-60
2022/09/06 09:09:46;;;;;;;1.50;1.00;;;;;;;25.91;23.94;100325.35;431191;1270;141920;-61
2022/09/06 09:19:52;;;;;;;1.10;0.70;;;;;;;24.32;25.94;100317.91;431503;1270;163017;-60
2022/09/06 09:30:05;;;;;;;1.80;1.00;;;;;;;23.01;27.36;100311.52;431270;1270;144026;-60
2022/09/06 09:40:35;;;;;;;4.50;1.10;;;;;;;22.16;28.78;100303.61;431640;1270;142910;-59
2022/09/06 09:50:40;;;;;;;3.80;1.20;;;;;;;21.74;29.61;100287.67;432350;1270;142910;-63
2022/09/06 10:00:46;;;;;;;2.50;1.00;;;;;;;21.34;30.43;100278.05;431146;1270;140328;-64
2022/09/06 10:10:53;;;;;;;2.50;0.70;;;;;;;20.98;30.82;100271.59;431785;1270;142776;-61
2022/09/06 10:21:01;;;;;;;0.80;0.70;;;;;;;20.60;31.76;100264.55;431775;1270;141003;-62
2022/09/06 10:31:36;;;;;;;1.70;1.20;;;;;;;19.93;32.27;100257.56;431549;1270;141585;-61
2022/09/06 10:41:54;;;;;;;0.70;0.50;;;;;;;19.41;33.39;100248.15;430647;1271;141791;-61
2022/09/06 10:52:03;;;;;;;3.00;0.50;;;;;;;19.17;33.65;100252.53;431220;1270;141769;-59
2022/09/06 11:02:19;;;;;;;0.80;0.60;;;;;;;19.03;34.19;100247.04;432259;1270;141406;-61
2022/09/06 11:12:35;;;;;;;4.00;0.90;;;;;;;18.99;34.63;100238.04;431764;1270;142157;-63
2022/09/06 11:23:12;;;;;;;1.30;0.60;;;;;;;19.12;34.70;100238.83;430947;1270;140824;-61
2022/09/06 11:33:27;;;;;;;2.90;1.20;;;;;;;19.23;34.52;100234.63;431241;1270;186620;-62
2022/09/06 11:43:48;;;;;;;1.90;0.80;;;;;;;19.29;34.99;100221.67;431058;1270;142376;-62
2022/09/06 11:54:21;;;;;;;1.20;0.80;;;;;;;19.26;34.76;100206.13;431840;1270;143308;-63
2022/09/06 12:05:06;;;;;;;1.30;0.70;;;;;;;19.22;34.89;100195.52;432095;1270;141375;-62
2022/09/06 12:15:26;;;;;;;2.10;0.80;;;;;;;19.07;34.85;100190.25;431763;1270;146248;-64
2022/09/06 12:25:57;;;;;;;2.30;0.60;;;;;;;19.01;34.86;100184.08;430312;1273;198494;-63
2022/09/06 12:36:17;;;;;;;1.70;1.30;;;;;;;19.18;34.79;100173.31;431333;1270;146866;-61
2022/09/06 12:46:24;;;;;;;3.50;0.70;;;;;;;19.15;34.26;100170.55;434909;1270;141874;-60
2022/09/06 12:56:33;;;;;;;2.30;0.90;;;;;;;19.31;34.64;100158.86;432133;1273;141663;-62
2022/09/06 13:06:42;;;;;;;2.60;0.90;;;;;;;19.50;34.88;100156.23;432095;1271;146267;-65
2022/09/06 13:16:50;;;;;;;2.20;0.60;;;;;;;19.51;34.72;100145.26;431445;1270;140523;-62
2022/09/06 13:26:56;;;;;;;3.00;0.80;;;;;;;19.50;34.66;100135.29;431833;1270;141457;-62
2022/09/06 13:37:04;;;;;;;1.40;0.60;;;;;;;19.40;34.59;100129.39;431256;1270;142293;-60
2022/09/06 13:47:10;;;;;;;3.10;1.20;;;;;;;19.42;34.84;100128.18;432163;1270;141752;-62
2022/09/06 13:57:17;;;;;;;1.20;0.70;;;;;;;19.44;34.95;100117.89;431199;1270;142900;-63
2022/09/06 14:07:29;;;;;;;2.80;0.80;;;;;;;19.62;35.12;100103.80;435895;1270;141456;-64
2022/09/06 14:17:34;;;;;;;3.00;1.20;;;;;;;19.86;35.07;100093.54;432621;1270;147347;-62
2022/09/06 14:27:40;;;;;;;0.70;0.60;;;;;;;20.09;34.71;100081.42;430974;1270;143111;-60
2022/09/06 14:37:46;;;;;;;2.20;0.60;;;;;;;20.11;34.60;100078.11;430897;1270;143364;-64
2022/09/06 14:47:52;;;;;;;1.90;0.90;;;;;;;19.90;34.70;100077.70;431511;1273;144969;-63
2022/09/06 14:57:58;;;;;;;2.30;0.50;;;;;;;19.78;34.97;100067.82;431666;1270;151377;-61
2022/09/06 15:08:05;;;;;;;0.50;0.40;;;;;;;19.50;34.87;100065.83;440221;1270;141886;-63
2022/09/06 15:18:11;;;;;;;1.20;1.10;;;;;;;19.12;35.11;100051.59;430811;1270;141341;-63
2022/09/06 15:28:18;;;;;;;1.80;1.00;;;;;;;18.83;36.12;100056.39;432229;1270;143795;-62
2022/09/06 15:38:24;;;;;;;0.80;0.60;;;;;;;18.49;36.24;100050.52;430004;1273;141450;-60
2022/09/06 15:48:39;;;;;;;0.60;0.60;;;;;;;18.21;36.90;100046.12;432749;1270;1631881;-63
2022/09/06 15:58:45;;;;;;;1.30;0.80;;;;;;;17.89;37.14;100044.23;431694;1270;141461;-62
2022/09/06 16:08:55;;;;;;;1.00;0.70;;;;;;;17.58;37.55;100035.24;433285;1270;147289;-62
2022/09/06 16:19:00;;;;;;;1.40;0.50;;;;;;;17.25;38.17;100034.15;433662;1272;140618;-62
2022/09/06 16:29:08;;;;;;;1.00;0.70;;;;;;;16.96;38.94;100028.08;431254;1271;141582;-61
2022/09/06 16:39:14;;;;;;;4.60;1.10;;;;;;;16.68;39.74;100029.08;443131;1270;143671;-63
2022/09/06 16:49:20;;;;;;;1.90;1.50;;;;;;;16.43;40.69;100029.54;447510;1271;143413;-63
2022/09/06 16:59:26;;;;;;;2.10;0.80;;;;;;;16.19;41.34;100027.41;437479;1270;141659;-61
2022/09/06 17:09:33;;;;;;;3.40;1.70;;;;;;;15.89;42.03;100021.48;430576;1270;141188;-63
2022/09/06 17:19:40;;;;;;;2.00;1.10;;;;;;;15.50;42.70;100019.22;431039;1271;142557;-63
2022/09/06 17:29:47;;;;;;;4.00;1.60;;;;;;;15.17;43.59;100024.05;446973;1270;195406;-62
2022/09/06 17:39:52;;;;;;;4.10;1.20;;;;;;;14.91;44.20;100030.73;447667;1271;142555;-63
2022/09/06 17:49:58;;;;;;;2.20;1.70;;;;;;;14.66;44.71;100035.02;446911;1270;143166;-63
2022/09/06 18:00:06;;;;;;;3.10;1.40;;;;;;;14.48;45.26;100039.33;440904;1270;141862;-60
2022/09/06 18:10:13;;;;;;;4.10;1.30;;;;;;;14.32;45.57;100041.38;447695;1270;199822;-63
2022/09/06 18:20:19;;;;;;;8.00;1.50;;;;;;;14.17;46.09;100045.03;446938;1270;141820;-63
2022/09/06 18:30:25;;;;;;;2.30;1.70;;;;;;;14.01;46.55;100042.31;447541;1270;142958;-62
2022/09/06 18:40:31;;;;;;;5.60;2.20;;;;;;;13.86;46.87;100045.86;442543;1270;143247;-63
2022/09/06 18:50:39;;;;;;;2.50;1.60;;;;;;;13.72;46.98;100051.23;432732;1270;144061;-61
2022/09/06 19:00:45;;;;;;;5.00;1.90;;;;;;;13.66;47.14;100053.91;447656;1270;142870;-62
2022/09/06 19:11:02;;;;;;;3.50;2.10;;;;;;;13.53;47.36;100053.73;446966;1270;142487;-62
2022/09/06 19:21:09;;;;;;;3.30;2.00;;;;;;;13.44;47.50;100049.77;447296;1270;142560;-62
2022/09/06 19:31:15;;;;;;;4.60;2.40;;;;;;;13.41;47.41;100046.05;447635;1268;141616;-62
2022/09/06 19:41:21;;;;;;;6.00;2.10;;;;;;;13.35;47.31;100041.91;446969;1268;185687;-62
2022/09/06 19:51:27;;;;;;;7.60;1.90;;;;;;;13.30;46.93;100033.47;440315;1270;141561;-62
2022/09/06 20:01:35;;;;;;;3.40;2.00;;;;;;;13.20;46.73;100028.89;447529;1269;142378;-63
2022/09/06 20:11:41;;;;;;;6.40;2.70;;;;;;;13.03;46.73;100028.92;444364;1270;141990;-62
2022/09/06 20:21:47;;;;;;;3.50;1.70;;;;;;;12.83;46.86;100026.02;441279;1270;142173;-63
2022/09/06 20:31:53;;;;;;;4.60;2.00;;;;;;;12.60;47.17;100026.49;446915;1270;142321;-62
2022/09/06 20:41:59;;;;;;;6.50;2.00;;;;;;;12.42;47.37;100031.72;447166;1272;141239;-63
2022/09/06 20:52:05;;;;;;;4.50;2.10;;;;;;;12.21;47.61;100031.31;447503;1269;142590;-63
2022/09/06 21:02:11;;;;;;;3.50;2.30;;;;;;;12.01;47.86;100029.38;441039;1270;142888;-61
2022/09/06 21:12:17;;;;;;;3.10;2.30;;;;;;;11.82;48.06;100025.42;443048;1270;142060;-63
2022/09/06 21:22:22;;;;;;;3.30;2.10;;;;;;;11.69;47.97;100026.26;447803;1270;142678;-62
2022/09/06 21:32:28;;;;;;;4.10;2.40;;;;;;;11.56;48.07;100022.46;446964;1270;143660;-62
2022/09/06 21:42:34;;;;;;;2.40;1.70;;;;;;;11.45;48.06;100013.33;440236;1270;142479;-61
2022/09/06 21:52:40;;;;;;;4.90;1.80;;;;;;;11.29;48.19;100010.59;434145;1272;142198;-60
2022/09/06 22:02:46;;;;;;;3.90;2.10;;;;;;;11.12;48.50;100009.45;441402;1270;141954;-61
2022/09/06 22:12:52;;;;;;;3.20;1.40;;;;;;;11.01;48.69;100009.79;442830;1270;141905;-61
2022/09/06 22:22:58;;;;;;;3.80;2.10;;;;;;;10.87;48.91;100010.39;443721;1270;144830;-62
2022/09/06 22:33:04;;;;;;;3.20;2.00;;;;;;;10.75;49.05;100002.70;437638;1270;141240;-63
2022/09/06 22:43:11;;;;;;;7.80;2.10;;;;;;;10.60;49.37;100002.52;441714;1268;142318;-61
2022/09/06 22:53:17;;;;;;;2.50;2.20;;;;;;;10.49;49.51;100002.27;431896;1270;141752;-63
2022/09/06 23:03:24;;;;;;;3.20;2.20;;;;;;;10.36;49.56;99999.26;431880;1273;140917;-60
2022/09/06 23:13:30;;;;;;;2.90;2.00;;;;;;;10.23;49.78;99996.30;434428;1270;142145;-65
2022/09/06 23:23:37;;;;;;;3.80;2.20;;;;;;;10.13;49.96;99988.11;430792;1270;142964;-62
2022/09/06 23:33:43;;;;;;;1.80;1.70;;;;;;;10.03;50.16;99976.77;430821;1270;140634;-62
2022/09/06 23:43:49;;;;;;;2.50;1.50;;;;;;;9.96;50.33;99972.64;431062;1271;141976;-61
2022/09/06 23:53:57;;;;;;;2.60;2.10;;;;;;;9.83;50.64;99970.52;431839;1270;141667;-62
